Terminal Aerodrome Forecast
Issued by NWS Missoula, MT

Home | Current Version | Previous Version | Text Only | Print | Product List | Glossary On
Versions: 1 2 3 4 5 6 7 8 9 10 11 12
622
FTUS45 KMSO 260520
TAFMSO
TAF
KMSO 260520Z 2606/2706 33005KT P6SM VCSH OVC050
     FM261200 VRB02KT P6SM BKN050
     FM262000 33006KT P6SM SCT060=

USA.gov is the U.S. government's official web portal to all federal, state and local government web resources and services.